sensor_id;sensor_type;location;lat;lon;timestamp;P1;durP1;ratioP1;P2;durP2;ratioP2
21860;SDS011;11095;48.066;8.540;2023-07-22T00:00:26;3.72;;;2.90;;
21860;SDS011;11095;48.066;8.540;2023-07-22T00:02:53;3.30;;;2.70;;
21860;SDS011;11095;48.066;8.540;2023-07-22T00:05:19;4.30;;;3.05;;
21860;SDS011;11095;48.066;8.540;2023-07-22T00:07:48;4.63;;;2.95;;
21860;SDS011;11095;48.066;8.540;2023-07-22T00:10:16;4.28;;;3.00;;
21860;SDS011;11095;48.066;8.540;2023-07-22T00:12:42;4.32;;;3.28;;
21860;SDS011;11095;48.066;8.540;2023-07-22T00:15:08;3.60;;;3.10;;
21860;SDS011;11095;48.066;8.540;2023-07-22T00:17:37;4.90;;;2.72;;
21860;SDS011;11095;48.066;8.540;2023-07-22T00:20:03;4.35;;;3.05;;
21860;SDS011;11095;48.066;8.540;2023-07-22T00:22:29;3.92;;;3.03;;
21860;SDS011;11095;48.066;8.540;2023-07-22T00:24:56;3.00;;;2.70;;
21860;SDS011;11095;48.066;8.540;2023-07-22T00:27:24;4.57;;;2.95;;
21860;SDS011;11095;48.066;8.540;2023-07-22T00:29:50;4.05;;;2.90;;
21860;SDS011;11095;48.066;8.540;2023-07-22T00:32:16;4.18;;;3.00;;
21860;SDS011;11095;48.066;8.540;2023-07-22T00:34:41;4.40;;;3.08;;
21860;SDS011;11095;48.066;8.540;2023-07-22T00:37:07;3.83;;;3.10;;
21860;SDS011;11095;48.066;8.540;2023-07-22T00:39:32;4.18;;;2.90;;
21860;SDS011;11095;48.066;8.540;2023-07-22T00:41:59;4.40;;;3.60;;
21860;SDS011;11095;48.066;8.540;2023-07-22T00:44:25;3.55;;;3.17;;
21860;SDS011;11095;48.066;8.540;2023-07-22T00:46:51;3.55;;;3.22;;
21860;SDS011;11095;48.066;8.540;2023-07-22T00:49:20;6.20;;;3.50;;
21860;SDS011;11095;48.066;8.540;2023-07-22T00:51:46;4.00;;;3.20;;
21860;SDS011;11095;48.066;8.540;2023-07-22T00:54:11;3.58;;;2.95;;
21860;SDS011;11095;48.066;8.540;2023-07-22T00:56:37;4.03;;;3.40;;
21860;SDS011;11095;48.066;8.540;2023-07-22T00:59:04;3.70;;;3.30;;
21860;SDS011;11095;48.066;8.540;2023-07-22T01:01:31;5.10;;;3.65;;
21860;SDS011;11095;48.066;8.540;2023-07-22T01:03:56;4.93;;;3.60;;
21860;SDS011;11095;48.066;8.540;2023-07-22T01:06:22;3.90;;;3.42;;
21860;SDS011;11095;48.066;8.540;2023-07-22T01:08:49;4.90;;;3.65;;
21860;SDS011;11095;48.066;8.540;2023-07-22T01:11:16;4.55;;;3.45;;
21860;SDS011;11095;48.066;8.540;2023-07-22T01:13:41;5.13;;;3.67;;
21860;SDS011;11095;48.066;8.540;2023-07-22T01:16:07;4.50;;;3.50;;
21860;SDS011;11095;48.066;8.540;2023-07-22T01:18:33;5.72;;;3.40;;
21860;SDS011;11095;48.066;8.540;2023-07-22T01:20:59;4.45;;;3.60;;
21860;SDS011;11095;48.066;8.540;2023-07-22T01:23:25;4.72;;;3.60;;
21860;SDS011;11095;48.066;8.540;2023-07-22T01:25:51;3.90;;;3.50;;
21860;SDS011;11095;48.066;8.540;2023-07-22T01:28:17;4.70;;;3.60;;
21860;SDS011;11095;48.066;8.540;2023-07-22T01:30:42;3.90;;;3.50;;
21860;SDS011;11095;48.066;8.540;2023-07-22T01:33:08;4.13;;;3.30;;
21860;SDS011;11095;48.066;8.540;2023-07-22T01:35:33;3.80;;;3.30;;
21860;SDS011;11095;48.066;8.540;2023-07-22T01:37:59;5.70;;;4.10;;
21860;SDS011;11095;48.066;8.540;2023-07-22T01:40:25;4.63;;;3.75;;
21860;SDS011;11095;48.066;8.540;2023-07-22T01:42:51;4.57;;;3.58;;
21860;SDS011;11095;48.066;8.540;2023-07-22T01:45:16;4.15;;;3.28;;
21860;SDS011;11095;48.066;8.540;2023-07-22T01:47:42;4.22;;;3.22;;
21860;SDS011;11095;48.066;8.540;2023-07-22T01:50:08;4.05;;;3.45;;
21860;SDS011;11095;48.066;8.540;2023-07-22T01:52:35;4.90;;;3.85;;
21860;SDS011;11095;48.066;8.540;2023-07-22T01:55:00;4.60;;;3.38;;
21860;SDS011;11095;48.066;8.540;2023-07-22T01:57:26;4.43;;;3.55;;
21860;SDS011;11095;48.066;8.540;2023-07-22T01:59:52;4.38;;;3.60;;
21860;SDS011;11095;48.066;8.540;2023-07-22T02:02:18;4.45;;;3.60;;
21860;SDS011;11095;48.066;8.540;2023-07-22T02:04:44;5.28;;;3.90;;
21860;SDS011;11095;48.066;8.540;2023-07-22T02:07:10;6.15;;;4.00;;
21860;SDS011;11095;48.066;8.540;2023-07-22T02:09:36;5.15;;;3.90;;
21860;SDS011;11095;48.066;8.540;2023-07-22T02:12:02;4.97;;;3.85;;
21860;SDS011;11095;48.066;8.540;2023-07-22T02:14:27;4.88;;;3.92;;
21860;SDS011;11095;48.066;8.540;2023-07-22T02:16:53;6.22;;;3.60;;
21860;SDS011;11095;48.066;8.540;2023-07-22T02:19:19;4.63;;;3.70;;
21860;SDS011;11095;48.066;8.540;2023-07-22T02:21:44;3.88;;;3.47;;
21860;SDS011;11095;48.066;8.540;2023-07-22T02:24:10;4.63;;;3.40;;
21860;SDS011;11095;48.066;8.540;2023-07-22T02:26:36;4.55;;;3.50;;
21860;SDS011;11095;48.066;8.540;2023-07-22T02:29:02;4.32;;;3.30;;
21860;SDS011;11095;48.066;8.540;2023-07-22T02:31:27;4.05;;;3.15;;
21860;SDS011;11095;48.066;8.540;2023-07-22T02:33:53;3.78;;;3.38;;
21860;SDS011;11095;48.066;8.540;2023-07-22T02:36:18;3.42;;;3.13;;
21860;SDS011;11095;48.066;8.540;2023-07-22T02:38:44;4.70;;;3.40;;
21860;SDS011;11095;48.066;8.540;2023-07-22T02:41:10;4.40;;;3.40;;
21860;SDS011;11095;48.066;8.540;2023-07-22T02:43:35;4.35;;;3.63;;
21860;SDS011;11095;48.066;8.540;2023-07-22T02:46:02;5.15;;;3.45;;
21860;SDS011;11095;48.066;8.540;2023-07-22T02:48:29;4.20;;;3.47;;
21860;SDS011;11095;48.066;8.540;2023-07-22T02:51:01;3.83;;;3.28;;
21860;SDS011;11095;48.066;8.540;2023-07-22T02:53:31;4.05;;;3.50;;
21860;SDS011;11095;48.066;8.540;2023-07-22T02:55:57;4.97;;;3.90;;
21860;SDS011;11095;48.066;8.540;2023-07-22T02:58:24;5.32;;;3.65;;
21860;SDS011;11095;48.066;8.540;2023-07-22T03:00:49;4.40;;;3.45;;
21860;SDS011;11095;48.066;8.540;2023-07-22T03:03:15;4.57;;;3.30;;
21860;SDS011;11095;48.066;8.540;2023-07-22T03:05:40;4.32;;;3.55;;
21860;SDS011;11095;48.066;8.540;2023-07-22T03:08:06;3.88;;;3.40;;
21860;SDS011;11095;48.066;8.540;2023-07-22T03:10:32;4.85;;;3.78;;
21860;SDS011;11095;48.066;8.540;2023-07-22T03:12:58;4.50;;;3.50;;
21860;SDS011;11095;48.066;8.540;2023-07-22T03:15:24;4.00;;;3.47;;
21860;SDS011;11095;48.066;8.540;2023-07-22T03:17:53;4.45;;;3.40;;
21860;SDS011;11095;48.066;8.540;2023-07-22T03:20:20;5.03;;;3.88;;
21860;SDS011;11095;48.066;8.540;2023-07-22T03:22:47;5.35;;;4.10;;
21860;SDS011;11095;48.066;8.540;2023-07-22T03:25:14;3.95;;;3.38;;
21860;SDS011;11095;48.066;8.540;2023-07-22T03:27:42;5.18;;;4.40;;
21860;SDS011;11095;48.066;8.540;2023-07-22T03:30:10;4.45;;;3.80;;
21860;SDS011;11095;48.066;8.540;2023-07-22T03:32:39;5.13;;;3.92;;
21860;SDS011;11095;48.066;8.540;2023-07-22T03:35:10;4.90;;;3.63;;
21860;SDS011;11095;48.066;8.540;2023-07-22T03:37:36;4.78;;;4.10;;
21860;SDS011;11095;48.066;8.540;2023-07-22T03:40:05;5.65;;;4.65;;
21860;SDS011;11095;48.066;8.540;2023-07-22T03:42:51;5.22;;;3.97;;
21860;SDS011;11095;48.066;8.540;2023-07-22T03:45:18;5.75;;;4.00;;
21860;SDS011;11095;48.066;8.540;2023-07-22T03:47:44;4.95;;;3.53;;
21860;SDS011;11095;48.066;8.540;2023-07-22T03:50:11;4.53;;;3.90;;
21860;SDS011;11095;48.066;8.540;2023-07-22T03:52:37;5.53;;;4.05;;
21860;SDS011;11095;48.066;8.540;2023-07-22T03:55:03;5.70;;;4.10;;
21860;SDS011;11095;48.066;8.540;2023-07-22T03:57:30;4.57;;;3.75;;
21860;SDS011;11095;48.066;8.540;2023-07-22T03:59:56;4.28;;;3.47;;
21860;SDS011;11095;48.066;8.540;2023-07-22T04:02:23;4.55;;;3.67;;
21860;SDS011;11095;48.066;8.540;2023-07-22T04:04:50;5.20;;;4.03;;
21860;SDS011;11095;48.066;8.540;2023-07-22T04:07:16;5.90;;;4.20;;
21860;SDS011;11095;48.066;8.540;2023-07-22T04:09:43;6.22;;;4.18;;
21860;SDS011;11095;48.066;8.540;2023-07-22T04:12:09;4.63;;;3.40;;
21860;SDS011;11095;48.066;8.540;2023-07-22T04:14:35;4.43;;;3.72;;
21860;SDS011;11095;48.066;8.540;2023-07-22T04:17:01;4.10;;;3.40;;
21860;SDS011;11095;48.066;8.540;2023-07-22T04:19:29;5.30;;;3.40;;
21860;SDS011;11095;48.066;8.540;2023-07-22T04:21:54;4.30;;;2.95;;
21860;SDS011;11095;48.066;8.540;2023-07-22T04:24:20;3.42;;;3.05;;
21860;SDS011;11095;48.066;8.540;2023-07-22T04:26:46;3.50;;;2.88;;
21860;SDS011;11095;48.066;8.540;2023-07-22T04:29:11;3.85;;;2.88;;
21860;SDS011;11095;48.066;8.540;2023-07-22T04:31:37;3.15;;;2.70;;
21860;SDS011;11095;48.066;8.540;2023-07-22T04:34:03;4.13;;;2.85;;
21860;SDS011;11095;48.066;8.540;2023-07-22T04:36:30;3.30;;;2.80;;
21860;SDS011;11095;48.066;8.540;2023-07-22T04:38:56;4.43;;;3.00;;
21860;SDS011;11095;48.066;8.540;2023-07-22T04:41:22;2.75;;;2.38;;
21860;SDS011;11095;48.066;8.540;2023-07-22T04:43:47;2.95;;;2.35;;
21860;SDS011;11095;48.066;8.540;2023-07-22T04:46:13;3.00;;;2.60;;
21860;SDS011;11095;48.066;8.540;2023-07-22T04:48:38;2.80;;;2.33;;
21860;SDS011;11095;48.066;8.540;2023-07-22T04:51:04;3.03;;;1.98;;
21860;SDS011;11095;48.066;8.540;2023-07-22T04:53:30;3.55;;;2.03;;
21860;SDS011;11095;48.066;8.540;2023-07-22T04:55:55;3.70;;;2.20;;
21860;SDS011;11095;48.066;8.540;2023-07-22T04:58:21;3.67;;;1.95;;
21860;SDS011;11095;48.066;8.540;2023-07-22T05:00:47;2.97;;;1.77;;
21860;SDS011;11095;48.066;8.540;2023-07-22T05:03:13;2.60;;;2.00;;
21860;SDS011;11095;48.066;8.540;2023-07-22T05:05:39;2.03;;;1.83;;
21860;SDS011;11095;48.066;8.540;2023-07-22T05:08:05;2.75;;;2.00;;
21860;SDS011;11095;48.066;8.540;2023-07-22T05:10:32;2.40;;;2.00;;
21860;SDS011;11095;48.066;8.540;2023-07-22T05:12:58;2.20;;;1.90;;
21860;SDS011;11095;48.066;8.540;2023-07-22T05:15:24;2.83;;;2.05;;
21860;SDS011;11095;48.066;8.540;2023-07-22T05:17:50;2.42;;;2.10;;
21860;SDS011;11095;48.066;8.540;2023-07-22T05:20:16;4.28;;;2.40;;
21860;SDS011;11095;48.066;8.540;2023-07-22T05:22:42;2.42;;;2.13;;
21860;SDS011;11095;48.066;8.540;2023-07-22T05:25:08;2.78;;;2.05;;
21860;SDS011;11095;48.066;8.540;2023-07-22T05:27:34;2.63;;;1.98;;
21860;SDS011;11095;48.066;8.540;2023-07-22T05:30:00;2.22;;;1.80;;
21860;SDS011;11095;48.066;8.540;2023-07-22T05:32:28;2.10;;;1.90;;
21860;SDS011;11095;48.066;8.540;2023-07-22T05:34:57;2.10;;;1.83;;
21860;SDS011;11095;48.066;8.540;2023-07-22T05:37:23;2.13;;;1.92;;
21860;SDS011;11095;48.066;8.540;2023-07-22T05:39:49;3.75;;;1.90;;
21860;SDS011;11095;48.066;8.540;2023-07-22T05:42:15;2.45;;;1.70;;
21860;SDS011;11095;48.066;8.540;2023-07-22T05:44:41;4.20;;;1.90;;
21860;SDS011;11095;48.066;8.540;2023-07-22T05:47:07;2.72;;;1.83;;
21860;SDS011;11095;48.066;8.540;2023-07-22T05:49:32;2.67;;;1.67;;
21860;SDS011;11095;48.066;8.540;2023-07-22T05:51:58;2.35;;;1.90;;
21860;SDS011;11095;48.066;8.540;2023-07-22T05:54:23;2.58;;;1.70;;
21860;SDS011;11095;48.066;8.540;2023-07-22T05:56:49;3.25;;;1.90;;
21860;SDS011;11095;48.066;8.540;2023-07-22T05:59:14;2.10;;;1.48;;
21860;SDS011;11095;48.066;8.540;2023-07-22T06:01:40;2.15;;;1.70;;
21860;SDS011;11095;48.066;8.540;2023-07-22T06:04:06;2.25;;;1.98;;
21860;SDS011;11095;48.066;8.540;2023-07-22T06:06:31;2.13;;;1.83;;
21860;SDS011;11095;48.066;8.540;2023-07-22T06:08:57;2.28;;;1.80;;
21860;SDS011;11095;48.066;8.540;2023-07-22T06:11:23;2.00;;;1.80;;
21860;SDS011;11095;48.066;8.540;2023-07-22T06:13:48;2.40;;;1.70;;
21860;SDS011;11095;48.066;8.540;2023-07-22T06:16:14;1.98;;;1.60;;
21860;SDS011;11095;48.066;8.540;2023-07-22T06:18:40;1.67;;;1.55;;
21860;SDS011;11095;48.066;8.540;2023-07-22T06:21:05;1.98;;;1.77;;
21860;SDS011;11095;48.066;8.540;2023-07-22T06:23:31;2.25;;;1.60;;
21860;SDS011;11095;48.066;8.540;2023-07-22T06:25:57;2.25;;;1.55;;
21860;SDS011;11095;48.066;8.540;2023-07-22T06:28:22;2.70;;;1.83;;
21860;SDS011;11095;48.066;8.540;2023-07-22T06:30:48;1.95;;;1.55;;
21860;SDS011;11095;48.066;8.540;2023-07-22T06:33:14;2.13;;;1.70;;
21860;SDS011;11095;48.066;8.540;2023-07-22T06:35:39;1.63;;;1.30;;
21860;SDS011;11095;48.066;8.540;2023-07-22T06:38:05;2.15;;;1.35;;
21860;SDS011;11095;48.066;8.540;2023-07-22T06:40:30;1.55;;;1.30;;
21860;SDS011;11095;48.066;8.540;2023-07-22T06:42:56;1.75;;;1.52;;
21860;SDS011;11095;48.066;8.540;2023-07-22T06:45:22;2.13;;;1.40;;
21860;SDS011;11095;48.066;8.540;2023-07-22T06:47:47;1.77;;;1.20;;
21860;SDS011;11095;48.066;8.540;2023-07-22T06:50:13;1.35;;;1.23;;
21860;SDS011;11095;48.066;8.540;2023-07-22T06:52:38;1.70;;;1.50;;
21860;SDS011;11095;48.066;8.540;2023-07-22T06:55:04;1.67;;;1.35;;
21860;SDS011;11095;48.066;8.540;2023-07-22T06:57:30;1.98;;;1.40;;
21860;SDS011;11095;48.066;8.540;2023-07-22T06:59:57;1.85;;;1.50;;
21860;SDS011;11095;48.066;8.540;2023-07-22T07:02:23;1.70;;;1.38;;
21860;SDS011;11095;48.066;8.540;2023-07-22T07:04:49;2.50;;;1.35;;
21860;SDS011;11095;48.066;8.540;2023-07-22T07:07:15;1.85;;;1.40;;
21860;SDS011;11095;48.066;8.540;2023-07-22T07:09:41;1.70;;;1.20;;
21860;SDS011;11095;48.066;8.540;2023-07-22T07:12:07;1.52;;;1.10;;
21860;SDS011;11095;48.066;8.540;2023-07-22T07:14:33;1.40;;;1.30;;
21860;SDS011;11095;48.066;8.540;2023-07-22T07:16:59;1.67;;;1.40;;
21860;SDS011;11095;48.066;8.540;2023-07-22T07:19:26;1.50;;;1.40;;
21860;SDS011;11095;48.066;8.540;2023-07-22T07:21:51;2.10;;;1.27;;
21860;SDS011;11095;48.066;8.540;2023-07-22T07:24:17;1.40;;;1.30;;
21860;SDS011;11095;48.066;8.540;2023-07-22T07:26:43;1.75;;;1.33;;
21860;SDS011;11095;48.066;8.540;2023-07-22T07:29:09;1.73;;;1.33;;
21860;SDS011;11095;48.066;8.540;2023-07-22T07:31:35;1.67;;;1.10;;
21860;SDS011;11095;48.066;8.540;2023-07-22T07:34:00;1.30;;;1.20;;
21860;SDS011;11095;48.066;8.540;2023-07-22T07:36:26;1.30;;;1.20;;
21860;SDS011;11095;48.066;8.540;2023-07-22T07:38:51;1.65;;;1.20;;
21860;SDS011;11095;48.066;8.540;2023-07-22T07:41:17;1.55;;;1.30;;
21860;SDS011;11095;48.066;8.540;2023-07-22T07:43:43;1.52;;;1.30;;
21860;SDS011;11095;48.066;8.540;2023-07-22T07:46:13;1.38;;;1.20;;
21860;SDS011;11095;48.066;8.540;2023-07-22T07:48:50;1.98;;;1.10;;
21860;SDS011;11095;48.066;8.540;2023-07-22T07:51:18;1.20;;;1.00;;
21860;SDS011;11095;48.066;8.540;2023-07-22T07:53:45;1.20;;;1.10;;
21860;SDS011;11095;48.066;8.540;2023-07-22T07:56:15;1.42;;;1.20;;
21860;SDS011;11095;48.066;8.540;2023-07-22T07:58:41;1.38;;;1.15;;
21860;SDS011;11095;48.066;8.540;2023-07-22T08:01:08;1.38;;;1.08;;
21860;SDS011;11095;48.066;8.540;2023-07-22T08:03:34;1.50;;;1.25;;
21860;SDS011;11095;48.066;8.540;2023-07-22T08:06:01;1.30;;;1.20;;
21860;SDS011;11095;48.066;8.540;2023-07-22T08:08:27;1.33;;;1.23;;
21860;SDS011;11095;48.066;8.540;2023-07-22T08:10:59;1.20;;;0.95;;
21860;SDS011;11095;48.066;8.540;2023-07-22T08:13:25;1.77;;;1.20;;
21860;SDS011;11095;48.066;8.540;2023-07-22T08:15:52;1.52;;;1.17;;
21860;SDS011;11095;48.066;8.540;2023-07-22T08:18:18;1.67;;;1.30;;
21860;SDS011;11095;48.066;8.540;2023-07-22T08:20:43;1.63;;;1.17;;
21860;SDS011;11095;48.066;8.540;2023-07-22T08:23:12;3.95;;;1.40;;
21860;SDS011;11095;48.066;8.540;2023-07-22T08:25:37;1.48;;;1.38;;
21860;SDS011;11095;48.066;8.540;2023-07-22T08:28:03;1.70;;;1.30;;
21860;SDS011;11095;48.066;8.540;2023-07-22T08:30:28;1.52;;;1.17;;
21860;SDS011;11095;48.066;8.540;2023-07-22T08:32:54;1.20;;;1.10;;
21860;SDS011;11095;48.066;8.540;2023-07-22T08:35:19;1.48;;;1.10;;
21860;SDS011;11095;48.066;8.540;2023-07-22T08:37:47;1.65;;;1.30;;
21860;SDS011;11095;48.066;8.540;2023-07-22T08:40:13;1.27;;;1.17;;
21860;SDS011;11095;48.066;8.540;2023-07-22T08:42:39;1.42;;;1.30;;
21860;SDS011;11095;48.066;8.540;2023-07-22T08:45:06;1.30;;;1.20;;
21860;SDS011;11095;48.066;8.540;2023-07-22T08:47:35;1.65;;;1.02;;
21860;SDS011;11095;48.066;8.540;2023-07-22T08:50:13;2.85;;;1.35;;
21860;SDS011;11095;48.066;8.540;2023-07-22T08:52:45;1.75;;;1.50;;
21860;SDS011;11095;48.066;8.540;2023-07-22T08:55:12;2.00;;;1.38;;
21860;SDS011;11095;48.066;8.540;2023-07-22T08:57:38;2.08;;;1.20;;
21860;SDS011;11095;48.066;8.540;2023-07-22T09:00:04;1.10;;;1.00;;
21860;SDS011;11095;48.066;8.540;2023-07-22T09:02:34;1.48;;;0.95;;
21860;SDS011;11095;48.066;8.540;2023-07-22T09:05:00;1.50;;;1.00;;
21860;SDS011;11095;48.066;8.540;2023-07-22T09:07:26;0.93;;;0.85;;
21860;SDS011;11095;48.066;8.540;2023-07-22T09:09:53;2.55;;;1.30;;
21860;SDS011;11095;48.066;8.540;2023-07-22T09:12:20;1.17;;;1.08;;
21860;SDS011;11095;48.066;8.540;2023-07-22T09:14:46;1.95;;;1.20;;
21860;SDS011;11095;48.066;8.540;2023-07-22T09:17:12;1.65;;;1.02;;
21860;SDS011;11095;48.066;8.540;2023-07-22T09:19:38;2.47;;;1.40;;
21860;SDS011;11095;48.066;8.540;2023-07-22T09:22:04;1.58;;;1.40;;
21860;SDS011;11095;48.066;8.540;2023-07-22T09:24:30;1.85;;;1.42;;
21860;SDS011;11095;48.066;8.540;2023-07-22T09:26:55;1.60;;;1.40;;
21860;SDS011;11095;48.066;8.540;2023-07-22T09:29:36;1.58;;;1.20;;
21860;SDS011;11095;48.066;8.540;2023-07-22T09:32:03;1.52;;;1.40;;
21860;SDS011;11095;48.066;8.540;2023-07-22T09:34:29;1.63;;;1.40;;
21860;SDS011;11095;48.066;8.540;2023-07-22T09:36:56;1.90;;;1.40;;
21860;SDS011;11095;48.066;8.540;2023-07-22T09:39:22;1.67;;;1.15;;
21860;SDS011;11095;48.066;8.540;2023-07-22T09:41:49;1.70;;;1.17;;
21860;SDS011;11095;48.066;8.540;2023-07-22T09:44:15;1.52;;;1.10;;
21860;SDS011;11095;48.066;8.540;2023-07-22T09:46:40;1.75;;;1.35;;
21860;SDS011;11095;48.066;8.540;2023-07-22T09:49:09;2.40;;;1.17;;
21860;SDS011;11095;48.066;8.540;2023-07-22T09:51:35;2.17;;;1.30;;
21860;SDS011;11095;48.066;8.540;2023-07-22T09:54:03;2.67;;;1.33;;
21860;SDS011;11095;48.066;8.540;2023-07-22T09:56:29;1.55;;;1.40;;
21860;SDS011;11095;48.066;8.540;2023-07-22T09:58:55;1.63;;;1.48;;
21860;SDS011;11095;48.066;8.540;2023-07-22T10:01:24;1.87;;;1.20;;
21860;SDS011;11095;48.066;8.540;2023-07-22T10:03:52;1.48;;;1.38;;
21860;SDS011;11095;48.066;8.540;2023-07-22T10:06:26;1.60;;;1.42;;
21860;SDS011;11095;48.066;8.540;2023-07-22T10:08:52;1.67;;;1.42;;
21860;SDS011;11095;48.066;8.540;2023-07-22T10:11:22;2.42;;;1.40;;
21860;SDS011;11095;48.066;8.540;2023-07-22T10:13:50;2.10;;;1.50;;
21860;SDS011;11095;48.066;8.540;2023-07-22T10:16:17;2.97;;;2.00;;
21860;SDS011;11095;48.066;8.540;2023-07-22T10:18:43;3.08;;;2.40;;
21860;SDS011;11095;48.066;8.540;2023-07-22T10:21:11;2.72;;;1.63;;
21860;SDS011;11095;48.066;8.540;2023-07-22T10:23:37;2.20;;;1.65;;
21860;SDS011;11095;48.066;8.540;2023-07-22T10:26:03;2.63;;;1.38;;
21860;SDS011;11095;48.066;8.540;2023-07-22T10:28:30;1.98;;;1.60;;
21860;SDS011;11095;48.066;8.540;2023-07-22T10:30:57;2.17;;;1.80;;
21860;SDS011;11095;48.066;8.540;2023-07-22T10:33:23;2.88;;;1.90;;
21860;SDS011;11095;48.066;8.540;2023-07-22T10:36:03;1.95;;;1.75;;
21860;SDS011;11095;48.066;8.540;2023-07-22T10:38:37;2.88;;;1.90;;
21860;SDS011;11095;48.066;8.540;2023-07-22T10:41:11;2.60;;;1.95;;
21860;SDS011;11095;48.066;8.540;2023-07-22T10:43:53;2.83;;;2.08;;
21860;SDS011;11095;48.066;8.540;2023-07-22T10:46:30;3.05;;;2.35;;
21860;SDS011;11095;48.066;8.540;2023-07-22T10:49:06;4.00;;;2.08;;
21860;SDS011;11095;48.066;8.540;2023-07-22T10:51:35;2.00;;;1.75;;
21860;SDS011;11095;48.066;8.540;2023-07-22T10:54:02;2.45;;;1.92;;
21860;SDS011;11095;48.066;8.540;2023-07-22T10:56:28;2.45;;;1.95;;
21860;SDS011;11095;48.066;8.540;2023-07-22T11:01:23;3.03;;;1.70;;
21860;SDS011;11095;48.066;8.540;2023-07-22T11:04:28;2.72;;;1.77;;
21860;SDS011;11095;48.066;8.540;2023-07-22T11:06:56;2.28;;;1.80;;
21860;SDS011;11095;48.066;8.540;2023-07-22T11:11:52;3.03;;;1.90;;
21860;SDS011;11095;48.066;8.540;2023-07-22T11:14:25;2.13;;;1.60;;
21860;SDS011;11095;48.066;8.540;2023-07-22T11:20:02;2.05;;;1.85;;
21860;SDS011;11095;48.066;8.540;2023-07-22T11:22:28;1.75;;;1.50;;
21860;SDS011;11095;48.066;8.540;2023-07-22T11:24:54;1.98;;;1.52;;
21860;SDS011;11095;48.066;8.540;2023-07-22T11:27:21;2.70;;;1.73;;
21860;SDS011;11095;48.066;8.540;2023-07-22T11:29:48;2.25;;;1.60;;
21860;SDS011;11095;48.066;8.540;2023-07-22T11:32:15;2.45;;;2.20;;
21860;SDS011;11095;48.066;8.540;2023-07-22T11:34:41;2.20;;;1.88;;
21860;SDS011;11095;48.066;8.540;2023-07-22T11:37:09;2.75;;;2.15;;
21860;SDS011;11095;48.066;8.540;2023-07-22T11:39:35;3.08;;;2.25;;
21860;SDS011;11095;48.066;8.540;2023-07-22T11:42:02;2.85;;;2.20;;
21860;SDS011;11095;48.066;8.540;2023-07-22T11:44:29;3.95;;;2.50;;
21860;SDS011;11095;48.066;8.540;2023-07-22T11:46:56;2.92;;;2.03;;
21860;SDS011;11095;48.066;8.540;2023-07-22T11:49:26;2.10;;;1.70;;
21860;SDS011;11095;48.066;8.540;2023-07-22T11:54:35;2.50;;;1.92;;
21860;SDS011;11095;48.066;8.540;2023-07-22T11:59:56;2.90;;;2.42;;
21860;SDS011;11095;48.066;8.540;2023-07-22T12:02:28;3.47;;;2.53;;
21860;SDS011;11095;48.066;8.540;2023-07-22T12:04:55;3.25;;;2.50;;
21860;SDS011;11095;48.066;8.540;2023-07-22T12:07:23;2.45;;;2.15;;
21860;SDS011;11095;48.066;8.540;2023-07-22T12:09:51;3.08;;;2.33;;
21860;SDS011;11095;48.066;8.540;2023-07-22T12:14:45;2.97;;;2.38;;
21860;SDS011;11095;48.066;8.540;2023-07-22T12:17:11;2.67;;;2.15;;
21860;SDS011;11095;48.066;8.540;2023-07-22T12:19:37;2.60;;;2.20;;
21860;SDS011;11095;48.066;8.540;2023-07-22T12:22:03;3.00;;;2.38;;
21860;SDS011;11095;48.066;8.540;2023-07-22T12:24:29;2.55;;;2.22;;
21860;SDS011;11095;48.066;8.540;2023-07-22T12:26:55;2.30;;;2.10;;
21860;SDS011;11095;48.066;8.540;2023-07-22T12:29:20;2.70;;;2.20;;
21860;SDS011;11095;48.066;8.540;2023-07-22T12:31:47;3.50;;;1.98;;
21860;SDS011;11095;48.066;8.540;2023-07-22T12:34:13;2.90;;;2.40;;
21860;SDS011;11095;48.066;8.540;2023-07-22T12:36:39;4.20;;;2.35;;
21860;SDS011;11095;48.066;8.540;2023-07-22T12:39:05;4.80;;;2.30;;
21860;SDS011;11095;48.066;8.540;2023-07-22T12:41:31;6.10;;;2.50;;
21860;SDS011;11095;48.066;8.540;2023-07-22T12:43:56;3.50;;;2.70;;
21860;SDS011;11095;48.066;8.540;2023-07-22T12:46:22;2.97;;;2.58;;
21860;SDS011;11095;48.066;8.540;2023-07-22T12:48:48;3.50;;;2.40;;
21860;SDS011;11095;48.066;8.540;2023-07-22T12:51:13;3.40;;;2.22;;
21860;SDS011;11095;48.066;8.540;2023-07-22T12:53:39;2.95;;;2.30;;
21860;SDS011;11095;48.066;8.540;2023-07-22T12:56:05;2.90;;;2.28;;
21860;SDS011;11095;48.066;8.540;2023-07-22T12:58:31;2.78;;;2.30;;
21860;SDS011;11095;48.066;8.540;2023-07-22T13:00:56;2.40;;;2.20;;
21860;SDS011;11095;48.066;8.540;2023-07-22T13:03:23;2.65;;;2.30;;
21860;SDS011;11095;48.066;8.540;2023-07-22T13:05:49;3.30;;;2.60;;
21860;SDS011;11095;48.066;8.540;2023-07-22T13:08:15;3.10;;;2.40;;
21860;SDS011;11095;48.066;8.540;2023-07-22T13:10:41;3.50;;;2.58;;
21860;SDS011;11095;48.066;8.540;2023-07-22T13:13:09;2.72;;;2.20;;
21860;SDS011;11095;48.066;8.540;2023-07-22T13:15:35;3.60;;;2.72;;
21860;SDS011;11095;48.066;8.540;2023-07-22T13:18:01;2.88;;;2.35;;
21860;SDS011;11095;48.066;8.540;2023-07-22T13:20:27;4.28;;;2.60;;
21860;SDS011;11095;48.066;8.540;2023-07-22T13:22:55;3.05;;;2.20;;
21860;SDS011;11095;48.066;8.540;2023-07-22T13:25:20;3.40;;;2.50;;
21860;SDS011;11095;48.066;8.540;2023-07-22T13:27:46;2.85;;;2.28;;
21860;SDS011;11095;48.066;8.540;2023-07-22T13:30:12;2.70;;;2.30;;
21860;SDS011;11095;48.066;8.540;2023-07-22T13:32:38;3.30;;;2.42;;
21860;SDS011;11095;48.066;8.540;2023-07-22T13:35:04;3.65;;;2.58;;
21860;SDS011;11095;48.066;8.540;2023-07-22T13:37:30;3.03;;;2.40;;
21860;SDS011;11095;48.066;8.540;2023-07-22T13:39:55;2.38;;;2.17;;
21860;SDS011;11095;48.066;8.540;2023-07-22T13:42:22;2.90;;;2.42;;
21860;SDS011;11095;48.066;8.540;2023-07-22T13:44:48;2.60;;;2.20;;
21860;SDS011;11095;48.066;8.540;2023-07-22T13:47:14;3.08;;;2.45;;
21860;SDS011;11095;48.066;8.540;2023-07-22T13:49:40;2.80;;;2.25;;
21860;SDS011;11095;48.066;8.540;2023-07-22T13:52:05;3.88;;;2.67;;
21860;SDS011;11095;48.066;8.540;2023-07-22T13:54:31;2.95;;;2.50;;
21860;SDS011;11095;48.066;8.540;2023-07-22T13:56:56;3.35;;;2.65;;
21860;SDS011;11095;48.066;8.540;2023-07-22T13:59:22;3.25;;;2.60;;
21860;SDS011;11095;48.066;8.540;2023-07-22T14:01:47;4.53;;;3.00;;
21860;SDS011;11095;48.066;8.540;2023-07-22T14:04:13;3.20;;;2.80;;
21860;SDS011;11095;48.066;8.540;2023-07-22T14:06:38;2.85;;;2.40;;
21860;SDS011;11095;48.066;8.540;2023-07-22T14:09:04;3.10;;;2.40;;
21860;SDS011;11095;48.066;8.540;2023-07-22T14:11:30;2.65;;;2.22;;
21860;SDS011;11095;48.066;8.540;2023-07-22T14:13:55;2.75;;;2.30;;
21860;SDS011;11095;48.066;8.540;2023-07-22T14:16:21;4.32;;;2.70;;
21860;SDS011;11095;48.066;8.540;2023-07-22T14:18:46;3.75;;;2.40;;
21860;SDS011;11095;48.066;8.540;2023-07-22T14:21:13;2.75;;;2.40;;
21860;SDS011;11095;48.066;8.540;2023-07-22T14:23:38;3.55;;;2.30;;
21860;SDS011;11095;48.066;8.540;2023-07-22T14:26:04;3.60;;;2.53;;
21860;SDS011;11095;48.066;8.540;2023-07-22T14:28:29;3.45;;;2.65;;
21860;SDS011;11095;48.066;8.540;2023-07-22T14:30:55;3.40;;;2.42;;
21860;SDS011;11095;48.066;8.540;2023-07-22T14:33:21;4.38;;;2.83;;
21860;SDS011;11095;48.066;8.540;2023-07-22T14:35:46;8.45;;;3.10;;
21860;SDS011;11095;48.066;8.540;2023-07-22T14:38:12;7.38;;;2.90;;
21860;SDS011;11095;48.066;8.540;2023-07-22T14:40:37;2.80;;;2.40;;
21860;SDS011;11095;48.066;8.540;2023-07-22T14:43:03;2.75;;;2.30;;
21860;SDS011;11095;48.066;8.540;2023-07-22T14:45:29;2.78;;;2.30;;
21860;SDS011;11095;48.066;8.540;2023-07-22T14:47:54;2.30;;;2.10;;
21860;SDS011;11095;48.066;8.540;2023-07-22T14:50:20;3.13;;;2.50;;
21860;SDS011;11095;48.066;8.540;2023-07-22T14:52:46;2.85;;;2.45;;
21860;SDS011;11095;48.066;8.540;2023-07-22T14:55:12;2.72;;;2.33;;
21860;SDS011;11095;48.066;8.540;2023-07-22T14:57:38;2.95;;;2.40;;
21860;SDS011;11095;48.066;8.540;2023-07-22T15:00:04;2.58;;;2.00;;